Time;durP1;ratioP1;P1;durP2;ratioP2;P2;SDS_P1;SDS_P2;PMS_P1;PMS_P2;Temp;Humidity;BMP_temperature;BMP_pressure;BME280_temperature;BME280_humidity;BME280_pressure;Samples;Min_cycle;Max_cycle;Signal;HPM_P1;HPM_P2
2022/08/16 00:00:34;;;;;;;0.17;0.17;;;;;;;23.25;58.71;100630.25;5109006;28;20078;-78
2022/08/16 00:03:02;;;;;;;0.10;0.10;;;;;;;23.23;58.90;100633.06;5108941;28;20039;-78
2022/08/16 00:05:29;;;;;;;0.95;0.43;;;;;;;23.23;58.62;100637.63;5109081;28;20020;-79
2022/08/16 00:07:57;;;;;;;0.45;0.45;;;;;;;23.22;59.30;100641.31;5108596;28;20388;-79
2022/08/16 00:10:26;;;;;;;3.25;0.65;;;;;;;23.20;59.30;100649.53;5108578;28;20169;-79
2022/08/16 00:12:53;;;;;;;0.13;0.13;;;;;;;23.18;59.25;100651.47;5108135;28;20035;-78
2022/08/16 00:15:24;;;;;;;0.10;0.10;;;;;;;23.17;59.04;100643.50;5108287;28;20482;-79
2022/08/16 00:17:50;;;;;;;0.20;0.20;;;;;;;23.13;59.10;100647.34;5108561;28;20065;-79
2022/08/16 00:20:17;;;;;;;0.10;0.10;;;;;;;23.11;58.96;100650.19;5099154;28;20485;-78
2022/08/16 00:22:44;;;;;;;0.28;0.28;;;;;;;23.11;58.82;100658.28;5093895;28;20024;-79
2022/08/16 00:25:13;;;;;;;0.10;0.10;;;;;;;23.10;59.28;100653.88;5094527;28;20034;-79
2022/08/16 00:27:40;;;;;;;0.43;0.43;;;;;;;23.07;59.43;100663.06;5094154;28;20180;-78
2022/08/16 00:30:09;;;;;;;0.55;0.15;;;;;;;23.07;59.33;100659.50;5094479;28;20469;-78
2022/08/16 00:32:37;;;;;;;0.10;0.10;;;;;;;23.04;59.35;100659.72;5093917;28;20500;-78
2022/08/16 00:35:05;;;;;;;0.20;0.20;;;;;;;23.02;59.81;100659.00;5094332;28;20392;-78
2022/08/16 00:37:31;;;;;;;0.20;0.20;;;;;;;23.00;59.57;100663.66;5094986;28;20107;-79
2022/08/16 00:39:57;;;;;;;0.10;0.10;;;;;;;23.00;59.83;100663.66;5094862;28;20672;-79
2022/08/16 00:42:26;;;;;;;0.10;0.10;;;;;;;22.99;59.82;100661.91;5094617;28;20484;-80
2022/08/16 00:44:55;;;;;;;0.30;0.30;;;;;;;23.01;59.70;100665.38;5094594;28;20032;-79
2022/08/16 00:47:24;;;;;;;0.15;0.15;;;;;;;22.98;59.98;100668.31;5094801;28;20043;-79
2022/08/16 00:49:50;;;;;;;0.52;0.52;;;;;;;22.96;59.73;100656.75;5094878;28;20020;-80
2022/08/16 00:52:16;;;;;;;0.30;0.30;;;;;;;22.94;59.44;100667.66;5094109;28;20028;-80
2022/08/16 00:54:43;;;;;;;1.02;0.75;;;;;;;22.95;59.85;100661.28;5094967;28;20552;-79
2022/08/16 00:57:10;;;;;;;0.30;0.30;;;;;;;22.94;60.41;100668.53;5094608;28;20031;-79
2022/08/16 00:59:38;;;;;;;0.63;0.63;;;;;;;22.91;60.82;100666.06;5095098;28;20099;-79
2022/08/16 01:02:07;;;;;;;0.10;0.10;;;;;;;22.90;60.30;100677.88;5094031;28;20028;-80
2022/08/16 01:04:34;;;;;;;0.57;0.57;;;;;;;22.87;60.26;100664.56;5095284;28;20034;-79
2022/08/16 01:07:03;;;;;;;0.95;0.95;;;;;;;22.87;60.30;100664.56;5095283;28;20119;-81
2022/08/16 01:09:34;;;;;;;0.80;0.80;;;;;;;22.83;61.60;100665.78;5095381;28;20158;-79
2022/08/16 01:12:04;;;;;;;0.73;0.73;;;;;;;22.82;60.81;100664.06;5094501;28;20085;-80
2022/08/16 01:14:41;;;;;;;0.32;0.32;;;;;;;22.79;60.66;100661.56;5095618;28;20123;-80
2022/08/16 01:17:31;;;;;;;1.90;0.40;;;;;;;22.88;60.97;100660.91;5095010;28;20036;-79
2022/08/16 01:20:01;;;;;;;0.40;0.40;;;;;;;22.77;61.23;100660.84;5094658;28;20034;-80
2022/08/16 01:22:40;;;;;;;0.10;0.10;;;;;;;22.78;61.06;100660.72;5093942;28;20512;-79
2022/08/16 01:25:13;;;;;;;0.43;0.43;;;;;;;22.75;61.50;100657.38;5094609;28;20374;-81
2022/08/16 01:27:47;;;;;;;0.00;0.00;;;;;;;22.75;61.41;100660.09;5094142;28;20389;-79
2022/08/16 01:30:19;;;;;;;0.63;0.63;;;;;;;22.74;61.21;100663.75;5094162;28;20489;-80
2022/08/16 01:32:45;;;;;;;0.43;0.43;;;;;;;22.71;61.14;100664.84;5092905;28;20073;-79
2022/08/16 01:35:21;;;;;;;0.40;0.40;;;;;;;22.72;61.32;100668.44;5094397;28;20032;-80
2022/08/16 01:37:53;;;;;;;0.85;0.85;;;;;;;22.68;61.47;100670.50;5094757;28;20021;-79
2022/08/16 01:40:23;;;;;;;0.25;0.25;;;;;;;22.66;61.21;100666.19;5093480;28;20032;-80
2022/08/16 01:42:50;;;;;;;0.10;0.10;;;;;;;22.61;61.28;100664.66;5093983;28;20039;-80
2022/08/16 01:45:17;;;;;;;0.10;0.10;;;;;;;22.61;61.34;100664.66;5093613;28;20058;-80
2022/08/16 01:47:45;;;;;;;0.10;0.10;;;;;;;22.60;61.47;100652.16;5094272;28;20482;-79
2022/08/16 01:50:12;;;;;;;0.35;0.35;;;;;;;22.60;61.56;100667.47;5093708;28;20043;-80
2022/08/16 01:52:40;;;;;;;0.82;0.82;;;;;;;22.58;61.30;100654.09;5093391;28;20028;-80
2022/08/16 01:55:07;;;;;;;0.10;0.10;;;;;;;22.56;61.93;100660.59;5093783;28;20031;-80
2022/08/16 01:57:34;;;;;;;0.28;0.28;;;;;;;22.54;61.72;100668.81;5093059;28;20028;-80
2022/08/16 02:00:04;;;;;;;0.10;0.10;;;;;;;22.54;61.84;100660.72;5093320;28;20028;-80
2022/08/16 02:02:30;;;;;;;0.10;0.10;;;;;;;22.53;61.87;100659.00;5093388;28;20117;-80
2022/08/16 02:04:58;;;;;;;0.63;0.63;;;;;;;22.54;61.87;100651.72;5093647;28;20028;-79
2022/08/16 02:07:25;;;;;;;0.95;0.95;;;;;;;22.53;61.85;100650.00;5093562;28;20020;-80
2022/08/16 02:09:52;;;;;;;0.57;0.35;;;;;;;22.53;61.75;100650.00;5093598;28;20028;-80
2022/08/16 02:12:19;;;;;;;0.15;0.15;;;;;;;22.51;61.96;100647.44;5092934;28;20101;-80
2022/08/16 02:14:45;;;;;;;0.20;0.20;;;;;;;22.49;61.79;100649.38;5094166;28;20038;-79
2022/08/16 02:17:11;;;;;;;2.83;0.93;;;;;;;22.48;61.56;100653.06;5093971;28;20499;-80
2022/08/16 02:19:41;;;;;;;0.10;0.10;;;;;;;22.48;62.01;100654.88;5093981;28;20051;-80
2022/08/16 02:22:12;;;;;;;0.85;0.85;;;;;;;22.45;62.06;100656.84;5093129;28;20496;-80
2022/08/16 02:24:40;;;;;;;0.52;0.47;;;;;;;22.45;61.60;100658.66;5093852;28;20145;-80
2022/08/16 02:27:06;;;;;;;0.63;0.35;;;;;;;22.48;61.51;100657.59;5093949;28;20031;-80
2022/08/16 02:29:33;;;;;;;0.77;0.77;;;;;;;22.48;61.38;100657.59;5094377;28;20477;-79
2022/08/16 02:31:59;;;;;;;0.25;0.25;;;;;;;22.47;61.54;100664.84;5093003;28;20117;-80
2022/08/16 02:34:25;;;;;;;0.10;0.10;;;;;;;22.48;61.61;100661.16;5094559;28;20039;-80
2022/08/16 02:36:52;;;;;;;2.83;0.47;;;;;;;22.48;61.64;100657.59;5093756;28;20039;-79
2022/08/16 02:39:19;;;;;;;0.10;0.10;;;;;;;22.46;61.56;100660.41;5092385;28;20409;-80
2022/08/16 02:41:48;;;;;;;0.10;0.10;;;;;;;22.46;61.75;100649.59;5092547;28;20032;-80
2022/08/16 02:44:15;;;;;;;0.50;0.50;;;;;;;22.45;62.25;100653.28;5092644;28;20024;-79
2022/08/16 02:46:42;;;;;;;0.68;0.68;;;;;;;22.44;61.96;100656.94;5093223;28;20369;-80
2022/08/16 02:49:09;;;;;;;0.10;0.10;;;;;;;22.43;61.61;100657.91;5092319;28;20063;-80
2022/08/16 02:51:37;;;;;;;1.90;0.88;;;;;;;22.43;62.03;100655.22;5092734;28;20070;-80
2022/08/16 02:54:05;;;;;;;0.88;0.88;;;;;;;22.43;61.58;100652.50;5092864;28;20024;-79
2022/08/16 02:56:31;;;;;;;0.73;0.73;;;;;;;22.41;61.99;100646.38;5093931;28;20031;-80
2022/08/16 02:58:58;;;;;;;1.55;1.27;;;;;;;22.41;61.83;100646.38;5092671;28;20020;-79
2022/08/16 03:01:29;;;;;;;0.00;0.00;;;;;;;22.41;62.00;100652.63;5092484;28;20031;-80
2022/08/16 03:04:01;;;;;;;0.35;0.35;;;;;;;22.41;62.26;100651.78;5093187;28;20028;-80
2022/08/16 03:06:29;;;;;;;0.15;0.15;;;;;;;22.36;62.05;100652.06;5092976;28;20036;-78
2022/08/16 03:08:55;;;;;;;0.45;0.45;;;;;;;22.33;62.15;100660.41;5092727;28;20477;-81
2022/08/16 03:11:21;;;;;;;0.10;0.10;;;;;;;22.29;62.13;100659.78;5092428;28;20043;-80
2022/08/16 03:13:51;;;;;;;0.00;0.00;;;;;;;22.28;62.41;100651.75;5092932;28;20027;-80
2022/08/16 03:16:18;;;;;;;0.20;0.20;;;;;;;22.25;62.34;100652.84;5092801;28;20028;-79
2022/08/16 03:18:44;;;;;;;0.17;0.17;;;;;;;22.23;62.75;100643.16;5093223;28;20580;-80
2022/08/16 03:21:11;;;;;;;0.10;0.10;;;;;;;22.21;62.46;100640.56;5092457;28;20070;-79
2022/08/16 03:23:38;;;;;;;0.35;0.35;;;;;;;22.19;62.61;100642.50;5093590;28;20032;-80
2022/08/16 03:26:04;;;;;;;0.10;0.10;;;;;;;22.17;62.87;100646.28;5093382;28;20440;-79
2022/08/16 03:28:31;;;;;;;0.10;0.10;;;;;;;22.14;62.89;100647.38;5093013;28;20396;-79
2022/08/16 03:30:57;;;;;;;2.30;1.00;;;;;;;22.11;62.77;100655.69;5092527;28;20036;-81
2022/08/16 03:33:23;;;;;;;0.10;0.10;;;;;;;22.07;62.93;100646.97;5092804;28;20031;-80
2022/08/16 03:35:50;;;;;;;0.20;0.20;;;;;;;22.05;63.40;100650.75;5092779;28;20032;-80
2022/08/16 03:38:17;;;;;;;0.43;0.43;;;;;;;22.03;63.45;100647.28;5092963;28;20017;-80
2022/08/16 03:40:43;;;;;;;1.00;1.00;;;;;;;22.01;63.25;100654.59;5092681;28;20032;-80
2022/08/16 03:43:11;;;;;;;0.08;0.08;;;;;;;21.98;63.63;100651.19;5092909;28;20047;-80
2022/08/16 03:45:39;;;;;;;0.22;0.22;;;;;;;21.96;63.48;100653.13;5092494;28;20393;-80
2022/08/16 03:48:07;;;;;;;0.38;0.38;;;;;;;21.94;63.65;100649.69;5092244;28;20523;-80
2022/08/16 03:50:34;;;;;;;2.00;1.90;;;;;;;21.95;63.49;100651.38;5092383;28;20032;-79
2022/08/16 03:53:04;;;;;;;0.55;0.55;;;;;;;21.97;63.49;100652.16;5092301;28;20035;-80
2022/08/16 03:55:30;;;;;;;7.45;0.70;;;;;;;21.92;63.99;100656.13;5094880;28;20016;-79
2022/08/16 03:57:56;;;;;;;0.30;0.30;;;;;;;21.91;63.90;100657.97;5095929;28;20020;-80
2022/08/16 04:00:29;;;;;;;0.10;0.10;;;;;;;21.91;63.98;100649.88;5096555;28;20149;-80
2022/08/16 04:02:57;;;;;;;0.10;0.10;;;;;;;21.90;63.68;100658.09;5097585;28;20511;-79
2022/08/16 04:05:24;;;;;;;0.32;0.32;;;;;;;21.89;63.75;100665.31;5096200;28;20044;-80
2022/08/16 04:07:50;;;;;;;1.15;1.15;;;;;;;21.89;63.67;100673.38;5095670;28;20028;-80
2022/08/16 04:10:16;;;;;;;0.20;0.20;;;;;;;21.89;63.80;100673.38;5095346;28;20077;-78
2022/08/16 04:12:45;;;;;;;0.88;0.88;;;;;;;21.89;63.44;100676.09;5095261;28;20035;-80
2022/08/16 04:15:13;;;;;;;0.75;0.75;;;;;;;21.88;63.49;100674.38;5095425;28;20047;-80
2022/08/16 04:17:40;;;;;;;0.17;0.17;;;;;;;21.86;63.71;100673.63;5096258;28;20035;-79
2022/08/16 04:20:08;;;;;;;0.55;0.55;;;;;;;21.86;63.88;100689.81;5095402;28;20571;-80
2022/08/16 04:22:35;;;;;;;1.25;1.15;;;;;;;21.83;64.26;100686.47;5095185;28;20036;-80
2022/08/16 04:25:02;;;;;;;2.25;0.47;;;;;;;21.81;64.07;100703.59;5095621;28;20024;-79
2022/08/16 04:27:29;;;;;;;0.43;0.43;;;;;;;21.78;64.49;100700.25;5095709;28;20102;-80
2022/08/16 04:29:56;;;;;;;0.13;0.13;;;;;;;21.75;64.62;100700.47;5094892;28;20028;-80
2022/08/16 04:32:22;;;;;;;0.63;0.47;;;;;;;21.76;64.42;100700.38;5094501;28;20446;-80
2022/08/16 04:34:49;;;;;;;0.90;0.90;;;;;;;21.75;64.65;100684.31;5095640;28;20024;-79
2022/08/16 04:37:15;;;;;;;0.22;0.22;;;;;;;21.75;64.41;100689.69;5095455;28;20050;-79
2022/08/16 04:39:41;;;;;;;1.20;1.20;;;;;;;21.73;64.50;100689.81;5095184;28;20039;-80
2022/08/16 04:42:07;;;;;;;0.55;0.55;;;;;;;21.75;64.48;100695.09;5094181;28;20024;-79
2022/08/16 04:44:34;;;;;;;0.75;0.75;;;;;;;21.75;64.12;100695.94;5095832;28;20036;-80
2022/08/16 04:47:00;;;;;;;0.88;0.77;;;;;;;21.75;64.47;100693.25;5095086;28;20034;-80
2022/08/16 04:49:26;;;;;;;0.30;0.30;;;;;;;21.76;63.94;100699.53;5095570;28;20160;-80
2022/08/16 04:51:52;;;;;;;0.10;0.10;;;;;;;21.77;64.19;100701.22;5095044;28;20041;-80
2022/08/16 04:54:18;;;;;;;0.73;0.73;;;;;;;21.78;63.84;100693.03;5096276;28;20047;-80
2022/08/16 04:56:45;;;;;;;1.08;0.65;;;;;;;21.79;63.90;100699.28;5096183;28;20665;-80
2022/08/16 04:59:11;;;;;;;0.55;0.55;;;;;;;21.78;63.97;100698.44;5095695;28;20012;-80
2022/08/16 05:01:37;;;;;;;1.08;1.08;;;;;;;21.76;64.10;100699.53;5081391;28;20409;-80
2022/08/16 05:04:04;;;;;;;0.93;0.93;;;;;;;21.80;64.00;100709.13;5074587;28;20074;-80
2022/08/16 05:06:33;;;;;;;0.68;0.68;;;;;;;21.79;63.69;100700.16;5074953;28;20031;-80
2022/08/16 05:08:59;;;;;;;2.30;0.85;;;;;;;21.77;64.03;100717.41;5075020;28;20039;-80
2022/08/16 05:11:27;;;;;;;13.20;1.40;;;;;;;21.72;64.51;100708.78;5075086;28;20028;-80
2022/08/16 05:13:54;;;;;;;0.40;0.40;;;;;;;21.73;64.54;100699.72;5075231;28;20032;-80
2022/08/16 05:16:26;;;;;;;1.13;1.08;;;;;;;21.78;64.20;100708.34;5075447;28;20098;-81
2022/08/16 05:18:54;;;;;;;0.57;0.57;;;;;;;21.78;64.18;100698.44;5075494;28;20029;-80
2022/08/16 05:21:21;;;;;;;0.20;0.20;;;;;;;21.81;63.87;100708.16;5074978;28;20024;-80
2022/08/16 05:23:49;;;;;;;1.20;1.20;;;;;;;21.79;64.04;100705.56;5075074;28;20575;-80
2022/08/16 05:26:15;;;;;;;4.97;0.85;;;;;;;21.77;64.03;100701.22;5075737;28;20032;-80
2022/08/16 05:28:41;;;;;;;1.55;1.17;;;;;;;21.81;63.76;100698.22;5076027;28;20082;-80
2022/08/16 05:31:07;;;;;;;1.40;1.30;;;;;;;21.88;63.58;100697.78;5074124;28;20033;-80
2022/08/16 05:33:33;;;;;;;0.20;0.20;;;;;;;21.90;63.62;100707.50;5074949;28;20098;-81
2022/08/16 05:36:00;;;;;;;0.10;0.10;;;;;;;21.93;63.61;100714.50;5074677;28;20033;-79
2022/08/16 05:38:26;;;;;;;0.85;0.85;;;;;;;21.96;63.51;100712.47;5075247;28;20048;-81
2022/08/16 05:40:55;;;;;;;0.20;0.20;;;;;;;22.00;63.65;100723.03;5074490;28;20415;-80
2022/08/16 05:43:21;;;;;;;1.67;0.95;;;;;;;21.99;63.54;100711.38;5075414;28;20052;-79
2022/08/16 05:45:49;;;;;;;0.68;0.68;;;;;;;22.03;63.74;100721.00;5075453;28;20024;-80
2022/08/16 05:48:15;;;;;;;0.55;0.55;;;;;;;22.06;62.91;100736.09;5074629;28;20079;-80
2022/08/16 05:50:41;;;;;;;1.20;1.17;;;;;;;22.08;63.73;100728.75;5073790;28;20066;-81
2022/08/16 05:53:08;;;;;;;0.75;0.70;;;;;;;22.06;63.71;100734.25;5075151;28;20032;-80
2022/08/16 05:55:35;;;;;;;0.15;0.15;;;;;;;22.05;63.91;100734.38;5074911;28;20057;-80
2022/08/16 05:58:01;;;;;;;0.20;0.20;;;;;;;22.09;63.81;100739.47;5074811;28;20028;-80
2022/08/16 06:00:27;;;;;;;0.88;0.88;;;;;;;22.14;64.26;100739.09;5074863;28;20028;-81
2022/08/16 06:02:53;;;;;;;0.82;0.82;;;;;;;22.17;64.09;100736.22;5074299;28;20036;-80
2022/08/16 06:05:19;;;;;;;0.73;0.73;;;;;;;22.23;63.82;100741.19;5074956;28;20035;-81
2022/08/16 06:07:45;;;;;;;0.80;0.80;;;;;;;22.25;64.34;100741.06;5074860;28;20033;-80
2022/08/16 06:10:12;;;;;;;0.13;0.13;;;;;;;22.29;64.29;100740.75;5074761;28;20037;-80
2022/08/16 06:12:39;;;;;;;0.50;0.50;;;;;;;22.33;64.49;100743.19;5074828;28;20042;-80
2022/08/16 06:15:10;;;;;;;0.40;0.40;;;;;;;22.43;64.04;100744.28;5074826;28;20052;-80
2022/08/16 06:17:37;;;;;;;0.20;0.20;;;;;;;22.43;64.11;100741.59;5074161;28;20048;-79
2022/08/16 06:20:04;;;;;;;0.88;0.85;;;;;;;22.46;64.13;100753.03;5075166;28;20054;-79
2022/08/16 06:22:31;;;;;;;0.40;0.40;;;;;;;22.48;64.62;100752.06;5074255;28;20024;-80
2022/08/16 06:24:57;;;;;;;2.95;1.30;;;;;;;22.53;64.27;100750.78;5074146;28;20535;-80
2022/08/16 06:27:24;;;;;;;0.38;0.38;;;;;;;22.50;64.37;100748.28;5074502;28;20111;-80
2022/08/16 06:29:50;;;;;;;0.95;0.95;;;;;;;22.55;64.28;100743.41;5083867;28;20024;-79
2022/08/16 06:32:16;;;;;;;4.63;1.48;;;;;;;22.56;64.24;100747.84;5092616;28;20047;-80
2022/08/16 06:34:42;;;;;;;1.75;1.63;;;;;;;22.59;64.00;100749.47;5094038;28;20118;-79
2022/08/16 06:37:09;;;;;;;1.40;1.40;;;;;;;22.65;64.31;100753.56;5093132;28;20089;-79
2022/08/16 06:39:35;;;;;;;0.95;0.95;;;;;;;22.67;64.05;100759.69;5092893;28;20103;-79
2022/08/16 06:42:01;;;;;;;1.38;1.27;;;;;;;22.69;63.90;100758.66;5093964;28;20085;-79
2022/08/16 06:44:27;;;;;;;0.82;0.68;;;;;;;22.65;63.99;100764.38;5092019;28;20032;-78
2022/08/16 06:46:54;;;;;;;1.90;1.25;;;;;;;22.68;64.03;100762.31;5092330;28;20028;-78
2022/08/16 06:49:20;;;;;;;7.82;1.98;;;;;;;22.81;63.89;100748.75;5091905;28;20457;-78
2022/08/16 06:51:46;;;;;;;0.45;0.45;;;;;;;22.92;63.45;100746.13;5092103;28;20032;-78
2022/08/16 06:54:12;;;;;;;0.70;0.70;;;;;;;22.99;63.30;100749.25;5092126;28;20028;-78
2022/08/16 06:56:38;;;;;;;0.63;0.63;;;;;;;23.10;63.27;100759.25;5092531;28;20024;-77
2022/08/16 06:59:05;;;;;;;0.60;0.60;;;;;;;23.12;63.19;100743.78;5091605;28;20481;-78
2022/08/16 07:01:31;;;;;;;3.17;2.20;;;;;;;23.22;62.74;100754.81;5090614;28;20039;-77
2022/08/16 07:03:57;;;;;;;3.05;1.85;;;;;;;23.25;62.61;100755.44;5091740;28;20496;-77
2022/08/16 07:06:24;;;;;;;0.90;0.70;;;;;;;23.32;62.56;100763.09;5091223;28;20058;-77
2022/08/16 07:08:50;;;;;;;0.57;0.57;;;;;;;23.35;62.39;100765.56;5091459;28;20028;-78
2022/08/16 07:11:19;;;;;;;0.80;0.80;;;;;;;23.43;62.14;100763.16;5090341;28;20032;-77
2022/08/16 07:13:47;;;;;;;1.75;1.65;;;;;;;23.48;62.01;100760.06;5091804;28;20036;-77
2022/08/16 07:16:15;;;;;;;1.58;1.48;;;;;;;23.50;61.82;100759.00;5091233;28;20020;-78
2022/08/16 07:18:42;;;;;;;1.48;1.23;;;;;;;23.57;61.93;100762.09;5091235;28;20496;-78
2022/08/16 07:21:11;;;;;;;1.02;1.00;;;;;;;23.57;62.05;100776.47;5090501;28;20035;-77
2022/08/16 07:23:38;;;;;;;1.67;1.60;;;;;;;23.71;62.01;100771.84;5091213;28;20051;-77
2022/08/16 07:26:07;;;;;;;0.10;0.10;;;;;;;23.84;61.85;100772.63;5091417;28;20024;-78
2022/08/16 07:28:34;;;;;;;2.22;2.08;;;;;;;23.90;61.64;100774.88;5093172;28;20024;-79
2022/08/16 07:31:04;;;;;;;1.92;1.80;;;;;;;24.01;61.08;100774.06;5096158;28;20032;-79
2022/08/16 07:33:36;;;;;;;1.77;1.67;;;;;;;24.13;61.08;100774.94;5097852;28;20481;-79
2022/08/16 07:36:04;;;;;;;0.20;0.20;;;;;;;24.11;61.10;100774.19;5097599;28;20515;-78
2022/08/16 07:38:33;;;;;;;4.70;1.67;;;;;;;24.24;60.65;100779.53;5097195;28;20031;-78
2022/08/16 07:40:59;;;;;;;0.93;0.93;;;;;;;24.19;60.56;100782.59;5095325;28;20162;-79
2022/08/16 07:43:26;;;;;;;0.85;0.85;;;;;;;24.19;60.47;100790.72;5096013;28;20031;-79
2022/08/16 07:45:52;;;;;;;2.08;1.98;;;;;;;24.20;60.84;100797.84;5096300;28;20028;-79
2022/08/16 07:48:18;;;;;;;1.48;1.45;;;;;;;24.33;60.57;100805.84;5096177;28;20031;-79
2022/08/16 07:50:45;;;;;;;1.13;0.75;;;;;;;24.37;60.77;100801.06;5095640;28;20077;-79
2022/08/16 07:53:12;;;;;;;0.50;0.50;;;;;;;24.28;61.10;100801.81;5095805;28;20060;-78
2022/08/16 07:55:40;;;;;;;1.30;1.20;;;;;;;24.43;60.76;100803.28;5095513;28;20553;-78
2022/08/16 07:58:06;;;;;;;0.80;0.75;;;;;;;24.44;60.75;100812.28;5090740;28;20035;-77
2022/08/16 08:00:33;;;;;;;0.57;0.57;;;;;;;24.64;60.52;100807.97;5073559;28;20028;-78
2022/08/16 08:02:59;;;;;;;1.25;1.20;;;;;;;24.64;60.24;100811.53;5073807;28;20422;-77
2022/08/16 08:05:27;;;;;;;0.95;0.95;;;;;;;24.73;59.79;100812.69;5074903;28;20021;-78
2022/08/16 08:07:54;;;;;;;0.25;0.25;;;;;;;24.81;59.75;100810.22;5073762;28;20497;-78
2022/08/16 08:10:22;;;;;;;0.35;0.35;;;;;;;24.86;59.54;100799.88;5074112;28;20592;-78
2022/08/16 08:12:52;;;;;;;0.70;0.70;;;;;;;24.82;59.00;100802.94;5073719;28;20040;-78
2022/08/16 08:15:20;;;;;;;0.52;0.52;;;;;;;25.01;58.38;100810.44;5074975;28;20032;-81
2022/08/16 08:17:49;;;;;;;0.30;0.30;;;;;;;25.10;58.01;100803.41;5074112;28;20589;-78
2022/08/16 08:20:19;;;;;;;0.60;0.60;;;;;;;25.18;58.27;100801.81;5073737;28;20554;-77
2022/08/16 08:22:47;;;;;;;0.20;0.20;;;;;;;25.33;58.30;100801.50;5073299;28;20545;-78
2022/08/16 08:25:17;;;;;;;0.45;0.45;;;;;;;25.43;57.91;100805.19;5075631;28;20489;-78
2022/08/16 08:27:43;;;;;;;3.30;2.35;;;;;;;25.45;57.59;100807.78;5073687;28;20093;-77
2022/08/16 08:30:11;;;;;;;1.00;1.00;;;;;;;25.45;58.20;100814.06;5072674;28;20124;-78
2022/08/16 08:32:40;;;;;;;1.23;1.23;;;;;;;25.45;57.81;100814.06;5073511;28;20032;-77
2022/08/16 08:35:07;;;;;;;1.23;1.20;;;;;;;25.59;57.41;100814.75;5073496;28;20032;-78
2022/08/16 08:37:35;;;;;;;0.47;0.35;;;;;;;25.68;57.54;100820.28;5073825;28;20041;-78
2022/08/16 08:40:03;;;;;;;0.85;0.85;;;;;;;25.72;57.45;100818.16;5072251;28;20017;-78
2022/08/16 08:42:30;;;;;;;1.67;1.55;;;;;;;25.74;56.81;100824.31;5072839;28;20029;-78
2022/08/16 08:44:56;;;;;;;1.70;1.48;;;;;;;25.89;57.27;100821.28;5073774;28;20021;-77
2022/08/16 08:47:22;;;;;;;1.30;1.27;;;;;;;25.87;57.14;100828.69;5074006;28;20397;-78
2022/08/16 08:49:48;;;;;;;1.50;1.10;;;;;;;25.93;57.17;100828.16;5072434;28;20032;-77
2022/08/16 08:52:14;;;;;;;2.13;1.00;;;;;;;25.98;56.70;100823.19;5072319;28;20029;-77
2022/08/16 08:54:41;;;;;;;0.75;0.75;;;;;;;26.14;56.65;100826.38;5073392;28;20028;-78
2022/08/16 08:57:07;;;;;;;1.60;1.50;;;;;;;26.29;56.02;100826.91;5073570;28;20397;-79
2022/08/16 08:59:34;;;;;;;0.70;0.70;;;;;;;26.37;55.66;100828.94;5072943;28;20025;-78
2022/08/16 09:02:00;;;;;;;0.70;0.70;;;;;;;26.34;55.54;100842.78;5071818;28;20158;-78
2022/08/16 09:04:28;;;;;;;3.17;1.40;;;;;;;26.56;55.08;100835.47;5073313;28;20035;-78
2022/08/16 09:06:55;;;;;;;0.88;0.88;;;;;;;26.52;55.08;100834.88;5073413;28;20048;-78
2022/08/16 09:09:22;;;;;;;1.38;0.95;;;;;;;26.54;55.24;100838.31;5072481;28;20032;-79
2022/08/16 09:11:48;;;;;;;8.77;1.45;;;;;;;26.58;55.21;100844.34;5072355;28;20064;-78
2022/08/16 09:14:15;;;;;;;2.25;1.70;;;;;;;26.62;54.77;100853.97;5073193;28;20024;-81
2022/08/16 09:16:41;;;;;;;0.57;0.57;;;;;;;26.68;54.66;100856.13;5073802;28;20063;-79
2022/08/16 09:19:07;;;;;;;0.88;0.88;;;;;;;26.88;54.39;100858.94;5073283;28;20056;-79
2022/08/16 09:21:33;;;;;;;4.30;1.25;;;;;;;27.04;53.88;100845.72;5072652;28;20028;-78
2022/08/16 09:23:59;;;;;;;0.75;0.75;;;;;;;27.00;53.32;100860.56;5073629;28;20036;-79
2022/08/16 09:26:25;;;;;;;1.48;1.35;;;;;;;27.15;53.28;100855.59;5072961;28;20389;-79
2022/08/16 09:28:51;;;;;;;4.15;1.80;;;;;;;27.27;53.64;100867.25;5072734;28;20355;-79
2022/08/16 09:31:17;;;;;;;0.77;0.77;;;;;;;27.30;52.84;100861.50;5072282;28;20037;-79
2022/08/16 09:33:44;;;;;;;1.08;0.98;;;;;;;27.40;53.56;100859.72;5072829;28;20123;-79
2022/08/16 09:36:11;;;;;;;1.55;1.42;;;;;;;27.47;52.87;100867.34;5073123;28;20432;-79
2022/08/16 09:38:38;;;;;;;1.73;1.65;;;;;;;27.59;52.93;100866.19;5072951;28;20025;-79
2022/08/16 09:41:07;;;;;;;0.30;0.30;;;;;;;27.66;51.99;100869.22;5072440;28;20402;-78
2022/08/16 09:43:33;;;;;;;1.33;1.23;;;;;;;27.77;51.23;100869.06;5072452;28;20716;-78
2022/08/16 09:46:02;;;;;;;3.40;3.15;;;;;;;27.82;51.49;100883.13;5073918;28;20036;-79
2022/08/16 09:48:28;;;;;;;1.58;1.48;;;;;;;27.87;51.09;100874.53;5073286;28;20032;-79
2022/08/16 09:50:55;;;;;;;1.65;1.50;;;;;;;27.92;50.19;100873.06;5091912;28;20035;-79
2022/08/16 09:53:22;;;;;;;1.02;1.02;;;;;;;28.11;50.57;100873.25;5097965;28;20028;-79
2022/08/16 09:55:52;;;;;;;1.27;1.20;;;;;;;28.11;50.67;100874.09;5095485;28;20031;-79
2022/08/16 09:58:22;;;;;;;0.43;0.43;;;;;;;28.17;49.39;100864.50;5093525;28;20031;-78
2022/08/16 10:00:49;;;;;;;1.42;1.35;;;;;;;28.12;49.30;100872.25;5093897;28;20374;-80
2022/08/16 10:03:16;;;;;;;1.10;1.00;;;;;;;28.35;48.93;100867.31;5093389;28;20020;-78
2022/08/16 10:05:42;;;;;;;0.82;0.82;;;;;;;28.42;48.84;100868.47;5093153;28;20047;-79
2022/08/16 10:08:09;;;;;;;0.55;0.55;;;;;;;28.55;49.05;100868.16;5094052;28;20066;-79
2022/08/16 10:10:35;;;;;;;2.47;2.28;;;;;;;28.66;48.62;100859.81;5093568;28;20451;-79
2022/08/16 10:13:17;;;;;;;0.55;0.55;;;;;;;28.97;48.58;100861.44;5093082;28;20036;-80
2022/08/16 10:15:46;;;;;;;0.93;0.93;;;;;;;29.17;47.70;100867.63;5093846;28;20055;-79
2022/08/16 10:18:13;;;;;;;1.08;1.08;;;;;;;29.34;46.69;100869.56;5093907;28;20031;-79
2022/08/16 10:20:44;;;;;;;0.32;0.32;;;;;;;29.50;45.69;100868.06;5093833;28;20036;-79
2022/08/16 10:23:14;;;;;;;0.77;0.75;;;;;;;29.56;44.71;100863.84;5093883;28;20024;-79
2022/08/16 10:25:42;;;;;;;1.10;1.00;;;;;;;29.57;44.16;100860.09;5093420;28;20035;-79
2022/08/16 10:28:09;;;;;;;0.75;0.75;;;;;;;29.66;45.27;100868.22;5092984;28;20063;-79
2022/08/16 10:30:36;;;;;;;1.67;0.93;;;;;;;29.76;44.10;100864.53;5095701;28;20043;-80
2022/08/16 10:33:03;;;;;;;2.10;1.40;;;;;;;29.79;43.91;100861.50;5099475;28;20043;-80
2022/08/16 10:35:30;;;;;;;3.47;2.35;;;;;;;29.78;43.20;100873.44;5093154;28;20370;-79
2022/08/16 10:37:56;;;;;;;0.73;0.55;;;;;;;29.66;43.75;100867.38;5092796;28;20035;-79
2022/08/16 10:40:22;;;;;;;0.63;0.50;;;;;;;29.69;43.69;100870.63;5092774;28;20701;-79
2022/08/16 10:42:49;;;;;;;0.47;0.47;;;;;;;29.77;43.86;100872.59;5092587;28;20042;-80
2022/08/16 10:45:16;;;;;;;0.50;0.47;;;;;;;29.81;44.13;100867.69;5092720;28;20081;-79
2022/08/16 10:47:43;;;;;;;0.50;0.50;;;;;;;29.81;43.43;100870.41;5093280;28;20027;-80
2022/08/16 10:50:10;;;;;;;0.35;0.35;;;;;;;29.77;43.92;100874.44;5092669;28;20088;-79
2022/08/16 10:52:36;;;;;;;0.20;0.20;;;;;;;29.83;43.96;100876.56;5092139;28;20439;-79
2022/08/16 10:55:03;;;;;;;0.45;0.45;;;;;;;29.62;43.15;100877.75;5092470;28;20028;-78
2022/08/16 10:57:31;;;;;;;0.85;0.57;;;;;;;29.54;43.37;100875.75;5092761;28;20031;-80
2022/08/16 10:59:58;;;;;;;0.52;0.52;;;;;;;29.55;43.37;100876.63;5091782;28;20027;-79
2022/08/16 11:02:24;;;;;;;0.20;0.20;;;;;;;29.49;43.17;100882.72;5091451;28;20028;-79
2022/08/16 11:04:52;;;;;;;0.50;0.50;;;;;;;29.60;43.69;100884.38;5092230;28;20027;-78
2022/08/16 11:07:19;;;;;;;0.20;0.20;;;;;;;29.63;42.93;100889.50;5092377;28;20032;-79
2022/08/16 11:09:45;;;;;;;0.40;0.40;;;;;;;29.63;43.52;100895.81;5092666;28;20039;-79
2022/08/16 11:12:11;;;;;;;0.63;0.63;;;;;;;29.77;43.16;100890.84;5091935;28;20031;-79
2022/08/16 11:14:37;;;;;;;2.35;0.68;;;;;;;29.68;43.20;100898.97;5093338;28;20032;-79
2022/08/16 11:17:05;;;;;;;2.13;1.80;;;;;;;29.89;42.79;100888.75;5092684;28;20443;-79
2022/08/16 11:19:32;;;;;;;0.30;0.30;;;;;;;29.93;42.08;100891.03;5104390;28;20028;-78
2022/08/16 11:21:59;;;;;;;0.50;0.50;;;;;;;29.98;40.96;100905.09;5091494;28;20039;-79
2022/08/16 11:24:26;;;;;;;0.43;0.43;;;;;;;30.30;40.46;100897.31;5091737;28;20024;-80